Dades meteomassalio
Diari Summary for Febrer 20, 2017 Units:  Metric    English   Both
« Previous Day
Next Day »
Diari Semanal Mensual Anual Personalitzat
  Maxima: Minima: Mijana:
Temperatura: -17.8 °C -16.7 °C -13.7 °C
Rosada: -17.8 °C -17.3 °C -15.4 °C
Humitat: Humidity % 61 % 82 %
Velocitat del vent: 0 km/h 0 km/h 6.9 km/h
Racha vent: 0 km/h - -
Vent:- - WSW
Pressio: 0 hPa 34726.8 hPa -
Pluja: 7.62 mm    
Historical Graphs
 
 
Tabular Data for Febrer 20, 2017
Time Temperature Dew Point Pressure Wind Wind Speed Wind Gust Humidity Rainfall Rate (Hourly) solar Conditions
-17.8 °C -17.8 °C 0 hPa Calm     Humidity % 0 mm SolarRadiationWatts/m^2 W/m2 Conditions
00:04 -16.2 °C -16.8 °C 34852.1 hPa Calm     93 % 0 mm 0.0 W/m2 RA
00:09 -16.3 °C -16.8 °C 34852.1 hPa Calm     93 % 0 mm 0.0 W/m2 CLR
00:14 -16.3 °C -16.8 °C 34852.1 hPa Calm     93 % 0 mm 0.0 W/m2 CLR
00:20 -16.3 °C -16.8 °C 34852.1 hPa Calm     93 % 0 mm 0.0 W/m2 CLR
00:25 -16.3 °C -16.9 °C 34852.1 hPa Calm     93 % 0 mm 0.0 W/m2 CLR
00:30 -16.2 °C -16.8 °C 34852.1 hPa Calm     93 % 0 mm 0.0 W/m2 CLR
00:35 -16.3 °C -16.8 °C 34852.1 hPa Calm     93 % 0 mm 0.0 W/m2 CLR
00:40 -16.4 °C -16.9 °C 34852.1 hPa Calm     93 % 0 mm 0.0 W/m2 CLR
00:45 -16.4 °C -16.9 °C 34852.1 hPa Calm     93 % 0 mm 0.0 W/m2 CLR
00:50 -16.4 °C -17 °C 34852.1 hPa Calm     93 % 0 mm 0.0 W/m2 CLR
00:55 -16.4 °C -17 °C 34852.1 hPa Calm     93 % 0 mm 0.0 W/m2 CLR
01:00 -16.4 °C -17 °C 34852.1 hPa SW 9 km/h 9 km/h 93 % 0 mm 0.0 W/m2 CLR
01:05 -16.3 °C -16.8 °C 34852.1 hPa Calm     94 % 0 mm 0.0 W/m2 CLR
01:10 -16.3 °C -16.9 °C 34852.1 hPa Calm     93 % 0 mm 0.0 W/m2 CLR
01:15 -16.3 °C -16.8 °C 34852.1 hPa Calm     93 % 0 mm 0.0 W/m2 CLR
01:20 -16.3 °C -16.9 °C 34852.1 hPa Calm     93 % 0 mm 0.0 W/m2 CLR
01:25 -16.4 °C -16.9 °C 34852.1 hPa Calm     93 % 0 mm 0.0 W/m2 CLR
01:30 -16.3 °C -16.9 °C 34852.1 hPa Calm     93 % 0 mm 0.0 W/m2 CLR
01:35 -16.4 °C -16.9 °C 34852.1 hPa Calm     93 % 0 mm 0.0 W/m2 CLR
01:40 -16.4 °C -17 °C 34852.1 hPa Calm     93 % 0 mm 0.0 W/m2 CLR
01:41 -16.4 °C -17 °C 34852.1 hPa Calm     93 % 0 mm 0.0 W/m2 CLR
01:46 -16.4 °C -17 °C 34852.1 hPa Calm     93 % 0 mm 0.0 W/m2 CLR
01:51 -16.3 °C -16.8 °C 34852.1 hPa Calm     94 % 0 mm 0.0 W/m2 CLR
01:56 -16.3 °C -16.8 °C 34852.1 hPa Calm     93 % 0 mm 0.0 W/m2 CLR
02:01 -16.2 °C -16.8 °C 34852.1 hPa Calm     93 % 0 mm 0.0 W/m2 CLR
02:06 -16.2 °C -16.7 °C 34852.1 hPa Calm     94 % 0 mm 0.0 W/m2 CLR
02:11 -16.2 °C -16.7 °C 34852.1 hPa Calm     93 % 0 mm 0.0 W/m2 CLR
02:16 -16.2 °C -16.7 °C 34852.1 hPa Calm     93 % 0 mm 0.0 W/m2 CLR
02:21 -16.2 °C -16.7 °C 34852.1 hPa Calm     93 % 0 mm 0.0 W/m2 CLR
02:26 -16.3 °C -16.8 °C 34852.1 hPa Calm     93 % 0 mm 0.0 W/m2 CLR
02:31 -16.3 °C -16.8 °C 34852.1 hPa Calm     93 % 0 mm 0.0 W/m2 CLR
02:36 -16.3 °C -16.9 °C 34852.1 hPa Calm     93 % 0 mm 0.0 W/m2 CLR
02:41 -16.5 °C -17.2 °C 34841.9 hPa Calm     92 % 0 mm 0.0 W/m2 CLR
02:46 -16.7 °C -17.3 °C 34841.9 hPa Calm     93 % 0 mm 0.0 W/m2 CLR
02:51 -16.7 °C -17.3 °C 34852.1 hPa Calm     93 % 0 mm 0.0 W/m2 CLR
02:56 -16.6 °C -17.2 °C 34852.1 hPa Calm     93 % 0 mm 0.0 W/m2 CLR
03:01 -16.6 °C -17.2 °C 34852.1 hPa Calm     93 % 0 mm 0.0 W/m2 CLR
03:06 -16.6 °C -17.1 °C 34852.1 hPa Calm     93 % 0 mm 0.0 W/m2 CLR
03:11 -16.4 °C -16.9 °C 34852.1 hPa Calm     94 % 0 mm 0.0 W/m2 CLR
03:16 -16.6 °C -17.1 °C 34852.1 hPa Calm     93 % 0 mm 0.0 W/m2 CLR
03:21 -16.6 °C -17.1 °C 34852.1 hPa Calm     93 % 0 mm 0.0 W/m2 CLR
03:26 -16.5 °C -17 °C 34852.1 hPa Calm     94 % 0 mm 0.0 W/m2 CLR
03:31 -16.4 °C -16.9 °C 34852.1 hPa Calm     94 % 7.62 mm 0.0 W/m2 RA
03:36 -16.2 °C -16.7 °C 34841.9 hPa Calm     94 % 7.62 mm 0.0 W/m2 CLR
03:41 -16.2 °C -16.7 °C 34841.9 hPa Calm     94 % 7.62 mm 0.0 W/m2 CLR
03:46 -16.3 °C -16.8 °C 34841.9 hPa Calm     93 % 7.62 mm 0.0 W/m2 CLR
03:51 -16.3 °C -16.8 °C 34841.9 hPa Calm     94 % 7.62 mm 0.0 W/m2 CLR
03:56 -16.3 °C -16.8 °C 34841.9 hPa Calm     94 % 7.62 mm 0.0 W/m2 CLR
04:01 -16.3 °C -16.8 °C 34841.9 hPa Calm     94 % 7.62 mm 0.0 W/m2 CLR
04:06 -16.4 °C -16.9 °C 34841.9 hPa Calm     93 % 7.62 mm 0.0 W/m2 CLR
04:11 -16.4 °C -17 °C 34841.9 hPa Calm     93 % 7.62 mm 0.0 W/m2 CLR
04:16 -16.4 °C -16.9 °C 34831.8 hPa Calm     94 % 7.62 mm 0.0 W/m2 CLR
04:21 -16.4 °C -16.9 °C 34831.8 hPa Calm     94 % 7.62 mm 0.0 W/m2 CLR
04:26 -16.4 °C -16.9 °C 34831.8 hPa Calm     94 % 7.62 mm 0.0 W/m2 CLR
04:31 -16.4 °C -16.9 °C 34831.8 hPa Calm     94 % 0 mm 0.0 W/m2 CLR
04:36 -16.4 °C -16.9 °C 34831.8 hPa Calm     94 % 0 mm 0.0 W/m2 CLR
04:41 -16.4 °C -16.9 °C 34831.8 hPa Calm     94 % 0 mm 0.0 W/m2 CLR
04:46 -16.4 °C -16.9 °C 34831.8 hPa Calm     94 % 0 mm 0.0 W/m2 CLR
04:51 -16.4 °C -16.9 °C 34831.8 hPa Calm     94 % 0 mm 0.0 W/m2 CLR
04:56 -16.4 °C -16.9 °C 34831.8 hPa Calm     94 % 0 mm 0.0 W/m2 CLR
05:02 -16.3 °C -16.8 °C 34831.8 hPa Calm     94 % 0 mm 0.0 W/m2 CLR
05:07 -16.3 °C -16.8 °C 34831.8 hPa Calm     94 % 0 mm 0.0 W/m2 CLR
05:12 -16.3 °C -16.8 °C 34831.8 hPa Calm     94 % 0 mm 0.0 W/m2 CLR
05:17 -16.3 °C -16.8 °C 34831.8 hPa Calm     94 % 0 mm 0.0 W/m2 CLR
05:22 -16.3 °C -16.8 °C 34831.8 hPa Calm     94 % 0 mm 0.0 W/m2 CLR
05:27 -16.3 °C -16.8 °C 34831.8 hPa Calm     94 % 0 mm 0.0 W/m2 CLR
05:32 -16.3 °C -16.8 °C 34831.8 hPa Calm     94 % 0 mm 0.0 W/m2 CLR
05:37 -16.3 °C -16.8 °C 34831.8 hPa Calm     94 % 0 mm 0.0 W/m2 CLR
05:42 -16.3 °C -16.8 °C 34831.8 hPa Calm     94 % 0 mm 0.0 W/m2 CLR
05:47 -16.4 °C -16.9 °C 34841.9 hPa SW 11.9 km/h 11.9 km/h 94 % 0 mm 0.0 W/m2 CLR
05:52 -16.4 °C -16.9 °C 34831.8 hPa SW 9 km/h 9 km/h 94 % 0 mm 0.0 W/m2 CLR
05:57 -16.4 °C -16.9 °C 34831.8 hPa Calm     94 % 0 mm 0.0 W/m2 CLR
06:02 -16.4 °C -16.9 °C 34841.9 hPa Calm     94 % 0 mm 0.0 W/m2 CLR
06:07 -16.4 °C -16.9 °C 34841.9 hPa Calm     94 % 0 mm 0.0 W/m2 CLR
06:12 -16.4 °C -16.9 °C 34841.9 hPa SW 10.3 km/h 10.3 km/h 94 % 0 mm 0.0 W/m2 CLR
06:17 -16.3 °C -16.8 °C 34841.9 hPa Calm     94 % 0 mm 0.0 W/m2 CLR
06:22 -16.3 °C -16.8 °C 34841.9 hPa Calm     94 % 0 mm 0.0 W/m2 CLR
06:27 -16.3 °C -16.8 °C 34841.9 hPa Calm     94 % 0 mm 0.0 W/m2 CLR
06:32 -16.3 °C -16.8 °C 34841.9 hPa Calm     94 % 0 mm 0.0 W/m2 CLR
06:37 -16.3 °C -16.8 °C 34841.9 hPa Calm     94 % 0 mm 0.0 W/m2 CLR
06:42 -16.3 °C -16.9 °C 34841.9 hPa Calm     93 % 0 mm 0.0 W/m2 CLR
06:47 -16.3 °C -16.8 °C 34841.9 hPa Calm     94 % 0 mm 0.0 W/m2 CLR
06:52 -16.2 °C -16.7 °C 34841.9 hPa SW 9 km/h 9 km/h 94 % 0 mm 0.0 W/m2 CLR
06:57 -16.2 °C -16.6 °C 34841.9 hPa Calm     94 % 0 mm 0.0 W/m2 CLR
07:02 -16.1 °C -16.6 °C 34841.9 hPa Calm     94 % 0 mm 0.0 W/m2 CLR
07:03 -16.1 °C -16.6 °C 34841.9 hPa Calm     94 % 0 mm 0.0 W/m2 CLR
07:08 -16.1 °C -16.6 °C 34841.9 hPa Calm     94 % 0 mm 0.0 W/m2 CLR
07:13 -16.2 °C -16.7 °C 34841.9 hPa WSW 6 km/h 6.4 km/h 94 % 0 mm 0.0 W/m2 CLR
07:18 -16 °C -16.5 °C 34841.9 hPa Calm     94 % 0 mm 0.0 W/m2 CLR
07:23 -16 °C -16.5 °C 34852.1 hPa Calm     94 % 0 mm 0.0 W/m2 CLR
07:28 -16.2 °C -16.7 °C 34852.1 hPa Calm     93 % 0 mm 0.0 W/m2 CLR
07:33 -16.4 °C -16.9 °C 34852.1 hPa Calm     93 % 0 mm 0.0 W/m2 CLR
07:38 -16.6 °C -17.1 °C 34852.1 hPa Calm     93 % 0 mm 0.0 W/m2 OVC
07:43 -16.6 °C -17.2 °C 34852.1 hPa Calm     93 % 0 mm 0.0 W/m2 OVC
07:48 -16.6 °C -17.2 °C 34852.1 hPa Calm     93 % 0 mm 5.0 W/m2 OVC
07:53 -16.6 °C -17.1 °C 34865.6 hPa Calm     94 % 0 mm 9.0 W/m2 BKN
07:58 -16.6 °C -17.1 °C 34865.6 hPa Calm     94 % 0 mm 12.0 W/m2 BKN
08:03 -16.6 °C -17.1 °C 34865.6 hPa Calm     94 % 0 mm 16.0 W/m2 BKN
08:08 -16.4 °C -16.9 °C 34865.6 hPa Calm     94 % 0 mm 21.0 W/m2 BKN
08:14 -16.2 °C -16.7 °C 34865.6 hPa WSW 15 km/h 15 km/h 94 % 0 mm 26.0 W/m2 BKN
08:19 -15.7 °C -16.2 °C 34865.6 hPa WSW 20.8 km/h 20.8 km/h 94 % 0 mm 33.0 W/m2 BKN
08:24 -15.2 °C -15.7 °C 34865.6 hPa West 17.9 km/h 17.9 km/h 94 % 0 mm 44.0 W/m2 BKN
08:29 -14.9 °C -15.4 °C 34865.6 hPa WSW 20.9 km/h 20.9 km/h 94 % 0 mm 56.0 W/m2 SCT
08:34 -14.7 °C -15.2 °C 34865.6 hPa WSW 17.9 km/h 17.9 km/h 94 % 0 mm 69.0 W/m2 SCT
08:39 -14.5 °C -15.2 °C 34875.8 hPa WSW 11.9 km/h 11.9 km/h 92 % 0 mm 79.0 W/m2 FEW
08:44 -14.4 °C -15.2 °C 34875.8 hPa SW 15 km/h 15 km/h 91 % 0 mm 95.0 W/m2 CLR
08:49 -14.4 °C -15.2 °C 34875.8 hPa SW 15 km/h 15 km/h 91 % 0 mm 90.0 W/m2 CLR
08:54 -14.6 °C -15.4 °C 34875.8 hPa Calm     90 % 0 mm 107.0 W/m2 CLR
08:59 -14.6 °C -15.3 °C 34875.8 hPa Calm     91 % 0 mm 116.0 W/m2 CLR
09:04 -14.4 °C -15.2 °C 34875.8 hPa Calm     91 % 0 mm 128.0 W/m2 CLR
09:09 -14.3 °C -15.1 °C 34875.8 hPa Calm     91 % 0 mm 116.0 W/m2 CLR
09:14 -14.1 °C -14.9 °C 34875.8 hPa SW 12.9 km/h 12.9 km/h 91 % 0 mm 146.0 W/m2 CLR
09:19 -13.9 °C -14.8 °C 34875.8 hPa SW 12.9 km/h 12.9 km/h 90 % 0 mm 202.0 W/m2 CLR
09:24 -13.7 °C -14.6 °C 34875.8 hPa SW 15 km/h 15 km/h 90 % 0 mm 214.0 W/m2 CLR
09:29 -13.6 °C -14.5 °C 34875.8 hPa SW 11.9 km/h 11.9 km/h 89 % 0 mm 234.0 W/m2 CLR
09:34 -13.4 °C -14.4 °C 34875.8 hPa SW 15.6 km/h 15.6 km/h 88 % 0 mm 248.0 W/m2 CLR
09:39 -13.2 °C -14.3 °C 34875.8 hPa SW 15.6 km/h 15.6 km/h 87 % 0 mm 262.0 W/m2 CLR
09:44 -13 °C -14.2 °C 34875.8 hPa SW 9 km/h 9 km/h 86 % 0 mm 274.0 W/m2 CLR
09:49 -12.7 °C -14.3 °C 34875.8 hPa WSW 38.8 km/h 38.8 km/h 83 % 0 mm 290.0 W/m2 CLR
09:54 -12.6 °C -14.3 °C 34875.8 hPa West 18.2 km/h 18.2 km/h 81 % 0 mm 302.0 W/m2 CLR
09:59 -12.4 °C -14.3 °C 34875.8 hPa West 33.6 km/h 33.6 km/h 80 % 0 mm 316.0 W/m2 CLR
10:04 -12.4 °C -14.3 °C 34875.8 hPa West 23.8 km/h 23.8 km/h 79 % 0 mm 332.0 W/m2 CLR
10:09 -12.3 °C -14.4 °C 34875.8 hPa WSW 29.8 km/h 29.8 km/h 78 % 0 mm 343.0 W/m2 CLR
10:14 -12.3 °C -14.3 °C 34875.8 hPa SW 20.8 km/h 20.8 km/h 78 % 0 mm 352.0 W/m2 CLR
10:19 -12.2 °C -14.3 °C 34875.8 hPa SW 25.9 km/h 25.9 km/h 77 % 0 mm 366.0 W/m2 CLR
10:24 -12.2 °C -14.3 °C 34875.8 hPa West 20.9 km/h 20.9 km/h 77 % 0 mm 387.0 W/m2 CLR
10:29 -12.1 °C -14.3 °C 34875.8 hPa WSW 20.9 km/h 20.9 km/h 77 % 0 mm 390.0 W/m2 CLR
10:34 -12.1 °C -14.3 °C 34875.8 hPa WNW 29.8 km/h 29.8 km/h 76 % 0 mm 403.0 W/m2 CLR
10:39 -12.1 °C -14.2 °C 34875.8 hPa WNW 20.9 km/h 20.9 km/h 77 % 0 mm 415.0 W/m2 CLR
10:44 -12 °C -14.2 °C 34875.8 hPa WNW 20.9 km/h 20.9 km/h 76 % 0 mm 420.0 W/m2 CLR
10:49 -11.9 °C -14.2 °C 34875.8 hPa West 15.6 km/h 15.6 km/h 76 % 0 mm 438.0 W/m2 CLR
10:54 -11.9 °C -14.3 °C 34875.8 hPa West 29.8 km/h 29.8 km/h 74 % 0 mm 448.0 W/m2 CLR
10:59 -11.9 °C -14.3 °C 34875.8 hPa West 29.8 km/h 29.8 km/h 75 % 0 mm 464.0 W/m2 CLR
11:04 -11.8 °C -14.1 °C 34865.6 hPa NW 29.8 km/h 29.8 km/h 76 % 0 mm 471.0 W/m2 CLR
11:09 -11.8 °C -14.3 °C 34865.6 hPa WSW 29.8 km/h 29.8 km/h 74 % 0 mm 476.0 W/m2 CLR
11:14 -11.8 °C -14.3 °C 34865.6 hPa WNW 33.6 km/h 33.6 km/h 74 % 0 mm 515.0 W/m2 CLR
11:19 -11.7 °C -14.1 °C 34865.6 hPa West 29.8 km/h 29.8 km/h 75 % 0 mm 149.0 W/m2 CLR
11:24 -11.7 °C -14.1 °C 34865.6 hPa NW 20.9 km/h 20.9 km/h 75 % 0 mm 573.0 W/m2 CLR
11:29 -11.5 °C -13.7 °C 34865.6 hPa WNW 9 km/h 9.7 km/h 76 % 0 mm 610.0 W/m2 CLR
11:34 -11.4 °C -14.3 °C 34865.6 hPa West 29.8 km/h 29.8 km/h 71 % 0 mm 619.0 W/m2 CLR
11:39 -11.4 °C -14.1 °C 34852.1 hPa WSW 15 km/h 15 km/h 73 % 0 mm 610.0 W/m2 CLR
11:44 -11.3 °C -14.1 °C 34852.1 hPa WSW 20.8 km/h 20.8 km/h 72 % 0 mm 629.0 W/m2 CLR
11:49 -11.2 °C -13.9 °C 34865.6 hPa WNW 20.9 km/h 20.9 km/h 72 % 0 mm 642.0 W/m2 CLR
11:54 -11.3 °C -14.3 °C 34852.1 hPa West 29.8 km/h 29.8 km/h 69 % 0 mm 153.0 W/m2 CLR
11:59 -11.4 °C -14.2 °C 34852.1 hPa West 15 km/h 15 km/h 71 % 0 mm 626.0 W/m2 CLR
12:04 -11.2 °C -14.1 °C 34852.1 hPa SW 20.9 km/h 20.9 km/h 71 % 0 mm 659.0 W/m2 CLR
12:10 -11.1 °C -14.2 °C 34852.1 hPa West 20.9 km/h 20.9 km/h 69 % 0 mm 696.0 W/m2 CLR
12:15 -11.1 °C -14.1 °C 34852.1 hPa WNW 26.9 km/h 26.9 km/h 70 % 0 mm 679.0 W/m2 CLR
12:20 -10.9 °C -13.9 °C 34852.1 hPa West 17.9 km/h 17.9 km/h 70 % 0 mm 710.0 W/m2 CLR
12:25 -10.8 °C -13.8 °C 34841.9 hPa NNW 23.3 km/h 23.3 km/h 70 % 0 mm 735.0 W/m2 CLR
12:30 -10.9 °C -14 °C 34841.9 hPa NW 23.8 km/h 23.8 km/h 69 % 0 mm 693.0 W/m2 CLR
12:35 -10.9 °C -13.8 °C 34841.9 hPa WNW 23.8 km/h 23.8 km/h 70 % 0 mm 703.0 W/m2 CLR
12:40 -10.9 °C -14 °C 34841.9 hPa NW 23.8 km/h 23.8 km/h 69 % 0 mm 192.0 W/m2 CLR
12:45 -11.2 °C -14.2 °C 34831.8 hPa WNW 20.9 km/h 20.9 km/h 69 % 0 mm 144.0 W/m2 CLR
12:50 -11.2 °C -14.2 °C 34831.8 hPa WNW 20.8 km/h 20.8 km/h 70 % 0 mm 218.0 W/m2 CLR
12:55 -11.1 °C -14.3 °C 34831.8 hPa West 20.8 km/h 20.8 km/h 68 % 0 mm 250.0 W/m2 CLR
13:00 -11.2 °C -14.3 °C 34831.8 hPa West 23.8 km/h 23.8 km/h 68 % 0 mm 670.0 W/m2 CLR
13:05 -10.9 °C -14.3 °C 34831.8 hPa WSW 20.9 km/h 20.9 km/h 66 % 0 mm 656.0 W/m2 CLR
13:10 -10.7 °C -13.9 °C 34818.2 hPa NW 29.8 km/h 29.8 km/h 68 % 0 mm 675.0 W/m2 CLR
13:15 -10.7 °C -14.2 °C 34818.2 hPa West 20.9 km/h 20.9 km/h 66 % 0 mm 673.0 W/m2 CLR
13:20 -10.6 °C -14.1 °C 34818.2 hPa WSW 20.9 km/h 20.9 km/h 66 % 0 mm 712.0 W/m2 CLR
13:25 -10.5 °C -14.1 °C 34818.2 hPa West 23.8 km/h 23.8 km/h 65 % 0 mm 703.0 W/m2 CLR
13:30 -10.5 °C -14.2 °C 34808.1 hPa WSW 15 km/h 15 km/h 64 % 0 mm 671.0 W/m2 CLR
13:35 -10.4 °C -14.1 °C 34808.1 hPa WSW 10.3 km/h 10.3 km/h 64 % 0 mm 673.0 W/m2 CLR
13:40 -10.3 °C -14 °C 34808.1 hPa WSW 17.9 km/h 17.9 km/h 64 % 0 mm 673.0 W/m2 CLR
13:45 -10.3 °C -14.1 °C 34808.1 hPa West 15 km/h 15 km/h 63 % 0 mm 679.0 W/m2 CLR
13:50 -10.3 °C -13.7 °C 34797.9 hPa NNW 20.9 km/h 20.9 km/h 66 % 0 mm 638.0 W/m2 CLR
13:55 -10.3 °C -13.7 °C 34797.9 hPa NW 15 km/h 15 km/h 67 % 0 mm 615.0 W/m2 CLR
14:00 -10.3 °C -13.6 °C 34797.9 hPa NNW 18.2 km/h 18.2 km/h 67 % 0 mm 613.0 W/m2 CLR
14:05 -10.3 °C -13.6 °C 34784.4 hPa North 29.8 km/h 29.8 km/h 68 % 0 mm 626.0 W/m2 CLR
14:10 -10.4 °C -13.7 °C 34784.4 hPa NNW 20.9 km/h 20.9 km/h 67 % 0 mm 603.0 W/m2 CLR
14:15 -10.3 °C -13.5 °C 34784.4 hPa NNW 15 km/h 15 km/h 68 % 0 mm 594.0 W/m2 CLR
14:20 -10.2 °C -13.8 °C 34774.2 hPa NW 6 km/h   65 % 0 mm 610.0 W/m2 CLR
14:25 -10.4 °C -13.9 °C 34774.2 hPa North 11.9 km/h 11.9 km/h 65 % 0 mm 584.0 W/m2 CLR
14:30 -10.4 °C -13.9 °C 34774.2 hPa NE 15 km/h 15 km/h 65 % 0 mm 577.0 W/m2 CLR
14:35 -10.3 °C -13.7 °C 34774.2 hPa North 15.6 km/h 15.6 km/h 67 % 0 mm 564.0 W/m2 CLR
14:40 -10.1 °C -13.7 °C 34774.2 hPa NNW 15 km/h 15 km/h 65 % 0 mm 566.0 W/m2 CLR
14:45 -10.1 °C -13.7 °C 34774.2 hPa NNE 11.9 km/h 11.9 km/h 65 % 0 mm 554.0 W/m2 CLR
14:50 -10.1 °C -13.7 °C 34760.7 hPa NW 11.9 km/h 11.9 km/h 65 % 0 mm 538.0 W/m2 CLR
14:55 -10 °C -13.6 °C 34760.7 hPa NNW 20.9 km/h 20.9 km/h 65 % 0 mm 534.0 W/m2 CLR
15:00 -10.1 °C -13.8 °C 34760.7 hPa North 6 km/h 6 km/h 64 % 0 mm 527.0 W/m2 CLR
15:05 -10 °C -13.7 °C 34760.7 hPa North 23.8 km/h 23.8 km/h 64 % 0 mm 515.0 W/m2 CLR
15:10 -9.9 °C -13.6 °C 34760.7 hPa North 6 km/h   65 % 0 mm 517.0 W/m2 CLR
15:15 -9.8 °C -13.6 °C 34760.7 hPa NW 17.9 km/h 17.9 km/h 64 % 0 mm 506.0 W/m2 CLR
15:20 -9.8 °C -13.7 °C 34750.5 hPa North 20.9 km/h 20.9 km/h 63 % 0 mm 490.0 W/m2 CLR
15:25 -9.8 °C -13.9 °C 34750.5 hPa NNW 11.9 km/h 11.9 km/h 61 % 0 mm 476.0 W/m2 CLR
15:30 -9.8 °C -13.6 °C 34750.5 hPa Calm     63 % 0 mm 464.0 W/m2 CLR
15:35 -9.7 °C -13.6 °C 34750.5 hPa West 15 km/h 15 km/h 63 % 0 mm 450.0 W/m2 CLR
15:40 -9.7 °C -13.7 °C 34750.5 hPa NW 20.9 km/h 20.9 km/h 62 % 0 mm 439.0 W/m2 CLR
15:45 -9.8 °C -13.8 °C 34750.5 hPa North 9 km/h   62 % 0 mm 424.0 W/m2 CLR
15:50 -9.8 °C -13.7 °C 34740.4 hPa Calm     63 % 0 mm 410.0 W/m2 CLR
15:55 -9.7 °C -13.7 °C 34740.4 hPa Calm     62 % 0 mm 408.0 W/m2 CLR
16:00 -9.7 °C -13.6 °C 34740.4 hPa NW 15 km/h 15 km/h 63 % 0 mm 396.0 W/m2 CLR
16:05 -9.6 °C -13.3 °C 34740.4 hPa NNW 20.8 km/h 20.8 km/h 64 % 0 mm 387.0 W/m2 CLR
16:10 -9.7 °C -13.8 °C 34740.4 hPa North 18.2 km/h 18.2 km/h 61 % 0 mm 366.0 W/m2 CLR
16:15 -9.8 °C -13.8 °C 34740.4 hPa NNE 23.8 km/h 23.8 km/h 62 % 0 mm 353.0 W/m2 CLR
16:20 -9.9 °C -13.7 °C 34740.4 hPa NNE 9 km/h 9 km/h 64 % 0 mm 348.0 W/m2 CLR
16:25 -9.9 °C -13.7 °C 34740.4 hPa North 9 km/h 9 km/h 64 % 0 mm 339.0 W/m2 CLR
16:30 -9.8 °C -13.7 °C 34740.4 hPa NNW 17.9 km/h 17.9 km/h 63 % 0 mm 323.0 W/m2 CLR
16:35 -9.9 °C -13.7 °C 34740.4 hPa North 11.9 km/h 11.9 km/h 64 % 0 mm 306.0 W/m2 CLR
16:40 -9.8 °C -13.6 °C 34726.8 hPa North 15 km/h 15 km/h 64 % 0 mm 294.0 W/m2 CLR
16:45 -9.9 °C -13.6 °C 34726.8 hPa North 15 km/h 15 km/h 64 % 0 mm 281.0 W/m2 CLR
16:50 -9.9 °C -13.7 °C 34726.8 hPa NNE 12.9 km/h 12.9 km/h 64 % 0 mm 264.0 W/m2 CLR
16:56 -10 °C -13.6 °C 34726.8 hPa NNW 9 km/h 9 km/h 65 % 0 mm 251.0 W/m2 CLR
17:01 -9.9 °C -13.6 °C 34726.8 hPa NW 12.9 km/h 12.9 km/h 65 % 0 mm 230.0 W/m2 CLR
17:06 -9.9 °C -13.6 °C 34726.8 hPa North 11.9 km/h 11.9 km/h 65 % 0 mm 214.0 W/m2 CLR
17:11 -10.1 °C -13.8 °C 34726.8 hPa North 11.9 km/h 11.9 km/h 64 % 0 mm 204.0 W/m2 CLR
17:16 -10.1 °C -13.7 °C 34726.8 hPa North 11.9 km/h 11.9 km/h 65 % 0 mm 185.0 W/m2 CLR
17:21 -10.1 °C -13.7 °C 34726.8 hPa North 10.3 km/h 10.3 km/h 65 % 0 mm 169.0 W/m2 CLR
17:26 -10.2 °C -13.8 °C 34726.8 hPa North 9 km/h 9 km/h 64 % 0 mm 151.0 W/m2 CLR
17:31 -10.2 °C -13.7 °C 34726.8 hPa Calm     66 % 0 mm 135.0 W/m2 CLR
17:41 -10.2 °C -13.8 °C 34726.8 hPa North 11.9 km/h 11.9 km/h 65 % 0 mm 102.0 W/m2 CLR
17:46 -10.3 °C -13.8 °C 34726.8 hPa Calm     65 % 0 mm 86.0 W/m2 CLR
17:51 -10.3 °C -13.9 °C 34726.8 hPa Calm     65 % 0 mm 72.0 W/m2 FEW
17:56 -10.3 °C -13.9 °C 34726.8 hPa Calm     65 % 0 mm 56.0 W/m2 SCT
18:01 -10.4 °C -13.9 °C 34726.8 hPa Calm     65 % 0 mm 51.0 W/m2 SCT
18:06 -10.4 °C -14 °C 34726.8 hPa Calm     65 % 0 mm 39.0 W/m2 BKN
18:11 -10.4 °C -13.8 °C 34726.8 hPa Calm     66 % 0 mm 30.0 W/m2 BKN
18:16 -10.4 °C -13.9 °C 34740.4 hPa Calm     66 % 0 mm 23.0 W/m2 BKN
18:21 -10.6 °C -14.1 °C 34740.4 hPa Calm     66 % 0 mm 18.0 W/m2 BKN
18:26 -10.7 °C -14.1 °C 34740.4 hPa Calm     67 % 0 mm 14.0 W/m2 BKN
18:27 -10.8 °C -14.2 °C 34740.4 hPa Calm     66 % 0 mm 14.0 W/m2 BKN
18:32 -10.9 °C -14.1 °C 34740.4 hPa Calm     68 % 0 mm 9.0 W/m2 BKN
18:37 -11.1 °C -14.1 °C 34740.4 hPa Calm     69 % 0 mm 5.0 W/m2 BKN
18:42 -11.3 °C -14.2 °C 34740.4 hPa Calm     71 % 0 mm 0.0 W/m2 OVC
18:47 -11.6 °C -14.3 °C 34740.4 hPa Calm     72 % 0 mm 0.0 W/m2 OVC
18:52 -11.8 °C -14.3 °C 34740.4 hPa Calm     74 % 0 mm 0.0 W/m2 CLR
18:57 -11.9 °C -14.3 °C 34750.5 hPa Calm     75 % 0 mm 0.0 W/m2 CLR
19:02 -12.1 °C -14.3 °C 34750.5 hPa Calm     76 % 0 mm 0.0 W/m2 CLR
19:07 -12.1 °C -14.4 °C 34750.5 hPa Calm     76 % 0 mm 0.0 W/m2 CLR
19:13 -12.2 °C -14.5 °C 34750.5 hPa Calm     76 % 0 mm 0.0 W/m2 CLR
19:18 -12.3 °C -14.5 °C 34760.7 hPa Calm     77 % 0 mm 0.0 W/m2 CLR
19:23 -12.4 °C -14.5 °C 34760.7 hPa Calm     78 % 0 mm 0.0 W/m2 CLR
19:28 -12.6 °C -14.5 °C 34760.7 hPa Calm     79 % 0 mm 0.0 W/m2 CLR
19:33 -12.7 °C -14.5 °C 34760.7 hPa Calm     80 % 0 mm 0.0 W/m2 CLR
19:38 -12.8 °C -14.6 °C 34760.7 hPa Calm     80 % 0 mm 0.0 W/m2 CLR
19:43 -12.9 °C -14.6 °C 34760.7 hPa Calm     81 % 0 mm 0.0 W/m2 CLR
19:48 -13.1 °C -14.7 °C 34774.2 hPa Calm     82 % 0 mm 0.0 W/m2 CLR
19:53 -13.2 °C -14.8 °C 34760.7 hPa Calm     83 % 0 mm 0.0 W/m2 CLR
19:58 -13.3 °C -14.8 °C 34774.2 hPa Calm     83 % 0 mm 0.0 W/m2 CLR
19:59 -13.4 °C -14.9 °C 34774.2 hPa Calm     83 % 0 mm 0.0 W/m2 CLR
20:04 -13.5 °C -14.9 °C 34774.2 hPa Calm     84 % 0 mm 0.0 W/m2 CLR
20:09 -13.6 °C -14.9 °C 34774.2 hPa Calm     85 % 0 mm 0.0 W/m2 CLR
20:14 -13.7 °C -15 °C 34774.2 hPa Calm     85 % 0 mm 0.0 W/m2 CLR
20:19 -13.8 °C -15.1 °C 34774.2 hPa Calm     85 % 0 mm 0.0 W/m2 CLR
20:24 -13.9 °C -15.1 °C 34774.2 hPa Calm     86 % 0 mm 0.0 W/m2 CLR
20:29 -14 °C -15.2 °C 34774.2 hPa Calm     86 % 0 mm 0.0 W/m2 CLR
20:34 -14.1 °C -15.2 °C 34774.2 hPa Calm     87 % 0 mm 0.0 W/m2 CLR
20:39 -14.1 °C -15.2 °C 34784.4 hPa Calm     87 % 0 mm 0.0 W/m2 CLR
20:44 -14.2 °C -15.3 °C 34774.2 hPa Calm     87 % 0 mm 0.0 W/m2 CLR
20:49 -14.3 °C -15.4 °C 34784.4 hPa Calm     87 % 0 mm 0.0 W/m2 CLR
20:54 -14.3 °C -15.3 °C 34784.4 hPa Calm     88 % 0 mm 0.0 W/m2 CLR
20:59 -14.3 °C -15.4 °C 34784.4 hPa Calm     88 % 0 mm 0.0 W/m2 CLR
21:04 -14.4 °C -15.4 °C 34784.4 hPa Calm     88 % 0 mm 0.0 W/m2 CLR
21:09 -14.5 °C -15.5 °C 34784.4 hPa Calm     88 % 0 mm 0.0 W/m2 CLR
21:14 -14.5 °C -15.5 °C 34784.4 hPa Calm     88 % 0 mm 0.0 W/m2 CLR
21:19 -14.6 °C -15.6 °C 34784.4 hPa Calm     88 % 0 mm 0.0 W/m2 CLR
21:24 -14.6 °C -15.7 °C 34797.9 hPa Calm     88 % 0 mm 0.0 W/m2 CLR
21:29 -14.7 °C -15.6 °C 34797.9 hPa Calm     89 % 0 mm 0.0 W/m2 CLR
21:31 -14.7 °C -15.6 °C 34797.9 hPa Calm     89 % 0 mm 0.0 W/m2 CLR
21:36 -14.7 °C -15.6 °C 34797.9 hPa Calm     89 % 0 mm 0.0 W/m2 CLR
21:41 -14.7 °C -15.6 °C 34797.9 hPa Calm     89 % 0 mm 0.0 W/m2 CLR
21:46 -14.8 °C -15.7 °C 34797.9 hPa Calm     89 % 0 mm 0.0 W/m2 CLR
21:51 -14.8 °C -15.8 °C 34797.9 hPa Calm     88 % 0 mm 0.0 W/m2 CLR
21:56 -14.9 °C -15.9 °C 34797.9 hPa Calm     88 % 0 mm 0.0 W/m2 CLR
22:01 -15 °C -15.9 °C 34808.1 hPa Calm     89 % 0 mm 0.0 W/m2 CLR
22:02 -15.1 °C -15.9 °C 34808.1 hPa Calm     89 % 0 mm 0.0 W/m2 CLR
22:07 -15.1 °C -16 °C 34808.1 hPa Calm     89 % 0 mm 0.0 W/m2 CLR
22:12 -15.1 °C -16 °C 34808.1 hPa Calm     89 % 0 mm 0.0 W/m2 CLR
22:17 -15.1 °C -15.9 °C 34808.1 hPa Calm     90 % 0 mm 0.0 W/m2 CLR
22:22 -15.1 °C -15.9 °C 34808.1 hPa Calm     90 % 0 mm 0.0 W/m2 CLR
22:27 -15.2 °C -16 °C 34808.1 hPa Calm     90 % 0 mm 0.0 W/m2 CLR
22:32 -15.2 °C -16.1 °C 34808.1 hPa Calm     90 % 0 mm 0.0 W/m2 CLR
22:37 -15.3 °C -16.1 °C 34808.1 hPa Calm     90 % 0 mm 0.0 W/m2 CLR
22:42 -15.3 °C -16.2 °C 34808.1 hPa Calm     90 % 0 mm 0.0 W/m2 CLR
22:47 -15.4 °C -16.2 °C 34808.1 hPa Calm     90 % 0 mm 0.0 W/m2 CLR
22:52 -15.4 °C -16.2 °C 34818.2 hPa Calm     90 % 0 mm 0.0 W/m2 CLR
22:57 -15.4 °C -16.3 °C 34818.2 hPa Calm     90 % 0 mm 0.0 W/m2 CLR
23:03 -15.4 °C -16.3 °C 34818.2 hPa Calm     90 % 0 mm 0.0 W/m2 CLR
23:08 -15.5 °C -16.2 °C 34818.2 hPa Calm     91 % 0 mm 0.0 W/m2 CLR
23:13 -15.5 °C -16.3 °C 34818.2 hPa Calm     90 % 0 mm 0.0 W/m2 CLR
23:18 -15.5 °C -16.2 °C 34818.2 hPa Calm     91 % 0 mm 0.0 W/m2 CLR
23:23 -15.4 °C -16.2 °C 34818.2 hPa Calm     91 % 0 mm 0.0 W/m2 CLR
23:28 -15.4 °C -16.2 °C 34818.2 hPa Calm     91 % 0 mm 0.0 W/m2 CLR
23:33 -15.5 °C -16.2 °C 34818.2 hPa Calm     91 % 0 mm 0.0 W/m2 CLR
23:38 -15.5 °C -16.3 °C 34818.2 hPa Calm     90 % 0 mm 0.0 W/m2 CLR
23:43 -15.5 °C -16.3 °C 34818.2 hPa Calm     91 % 0 mm 0.0 W/m2 CLR
23:48 -15.6 °C -16.4 °C 34818.2 hPa Calm     90 % 0 mm 0.0 W/m2 CLR
23:53 -15.7 °C -16.4 °C 34818.2 hPa Calm     91 % 0 mm 0.0 W/m2 CLR
23:58 -15.7 °C -16.6 °C 34818.2 hPa Calm     90 % 0 mm 0.0 W/m2 CLR
Lo Temps de Massalio
Compliments of Weather Underground - 1.25 mb